Rivers, Canada
Current Conditions -  °F | °C
As of 10:00 AM on Thursday 18 Dec 2014 (Local Time) from CYBR Reporting Station
Broken Clouds Broken Clouds  
Wind Chill: -24°   Ceiling: 24000
Heat Index: -18°   Visibility: 15mi
Dew Point: -20°   Wind: 6mph
Humidity: 85%   Direction: 60°ENE
Pressure: 30.13"   Gusts: NA
Location:  50.03°N, 100.22°W
Report Text: CYBR 181600Z 06005KT 15SM FEW002 SCT180 BKN240 M18/M20 A3013 RMK ST1AC2CI3 SLP248
Loading
Personal Weather Stations






























Interactive Weather Map New forecast layout! Learn more

10-Day Weather Forecast

Advertisements
Track Severe Weather on mobile